sensor_id;sensor_type;location;lat;lon;timestamp;temperature;humidity
13052;DHT22;6592;47.484;9.726;2023-03-14T00:00:18;12.50;99.90
13052;DHT22;6592;47.484;9.726;2023-03-14T00:02:51;12.30;99.90
13052;DHT22;6592;47.484;9.726;2023-03-14T00:05:21;12.00;99.90
13052;DHT22;6592;47.484;9.726;2023-03-14T00:07:52;11.90;99.90
13052;DHT22;6592;47.484;9.726;2023-03-14T00:10:21;11.70;99.90
13052;DHT22;6592;47.484;9.726;2023-03-14T00:12:49;11.50;99.90
13052;DHT22;6592;47.484;9.726;2023-03-14T00:15:19;11.40;99.90
13052;DHT22;6592;47.484;9.726;2023-03-14T00:17:48;11.30;99.90
13052;DHT22;6592;47.484;9.726;2023-03-14T00:20:17;11.20;99.90
13052;DHT22;6592;47.484;9.726;2023-03-14T00:22:46;11.20;99.90
13052;DHT22;6592;47.484;9.726;2023-03-14T00:25:16;11.10;99.90
13052;DHT22;6592;47.484;9.726;2023-03-14T00:27:45;11.00;99.90
13052;DHT22;6592;47.484;9.726;2023-03-14T00:30:14;11.00;99.90
13052;DHT22;6592;47.484;9.726;2023-03-14T00:32:44;11.00;99.90
13052;DHT22;6592;47.484;9.726;2023-03-14T00:35:13;11.00;99.90
13052;DHT22;6592;47.484;9.726;2023-03-14T00:37:42;10.90;99.90
13052;DHT22;6592;47.484;9.726;2023-03-14T00:40:11;10.90;99.90
13052;DHT22;6592;47.484;9.726;2023-03-14T00:42:41;10.90;99.90
13052;DHT22;6592;47.484;9.726;2023-03-14T00:45:10;10.80;99.90
13052;DHT22;6592;47.484;9.726;2023-03-14T00:47:40;10.70;99.90
13052;DHT22;6592;47.484;9.726;2023-03-14T00:50:12;10.70;99.90
13052;DHT22;6592;47.484;9.726;2023-03-14T00:52:41;10.70;99.90
13052;DHT22;6592;47.484;9.726;2023-03-14T00:55:09;10.60;99.90
13052;DHT22;6592;47.484;9.726;2023-03-14T00:57:38;10.60;99.90
13052;DHT22;6592;47.484;9.726;2023-03-14T01:00:12;10.60;99.90
13052;DHT22;6592;47.484;9.726;2023-03-14T01:02:41;10.60;99.90
13052;DHT22;6592;47.484;9.726;2023-03-14T01:05:10;10.60;99.90
13052;DHT22;6592;47.484;9.726;2023-03-14T01:07:38;10.50;99.90
13052;DHT22;6592;47.484;9.726;2023-03-14T01:10:10;10.60;99.90
13052;DHT22;6592;47.484;9.726;2023-03-14T01:12:39;10.60;99.90
13052;DHT22;6592;47.484;9.726;2023-03-14T01:15:09;10.60;99.90
13052;DHT22;6592;47.484;9.726;2023-03-14T01:17:38;10.60;99.90
13052;DHT22;6592;47.484;9.726;2023-03-14T01:20:11;10.50;99.90
13052;DHT22;6592;47.484;9.726;2023-03-14T01:22:41;10.50;99.90
13052;DHT22;6592;47.484;9.726;2023-03-14T01:25:12;10.50;99.90
13052;DHT22;6592;47.484;9.726;2023-03-14T01:27:42;10.40;99.90
13052;DHT22;6592;47.484;9.726;2023-03-14T01:30:13;10.40;99.90
13052;DHT22;6592;47.484;9.726;2023-03-14T01:32:42;10.40;99.90
13052;DHT22;6592;47.484;9.726;2023-03-14T01:35:11;10.40;99.90
13052;DHT22;6592;47.484;9.726;2023-03-14T01:37:40;10.30;99.90
13052;DHT22;6592;47.484;9.726;2023-03-14T01:40:11;10.30;99.90
13052;DHT22;6592;47.484;9.726;2023-03-14T01:42:46;10.30;99.90
13052;DHT22;6592;47.484;9.726;2023-03-14T01:48:22;10.30;99.90
13052;DHT22;6592;47.484;9.726;2023-03-14T01:50:51;10.30;99.90
13052;DHT22;6592;47.484;9.726;2023-03-14T01:53:20;10.30;99.90
13052;DHT22;6592;47.484;9.726;2023-03-14T01:55:50;10.20;99.90
13052;DHT22;6592;47.484;9.726;2023-03-14T01:58:25;10.30;99.90
13052;DHT22;6592;47.484;9.726;2023-03-14T02:00:57;10.10;99.90
13052;DHT22;6592;47.484;9.726;2023-03-14T02:03:29;10.00;99.90
13052;DHT22;6592;47.484;9.726;2023-03-14T02:06:03;9.80;99.90
13052;DHT22;6592;47.484;9.726;2023-03-14T02:08:33;9.70;99.90
13052;DHT22;6592;47.484;9.726;2023-03-14T02:11:04;9.60;99.90
13052;DHT22;6592;47.484;9.726;2023-03-14T02:13:34;9.50;99.90
13052;DHT22;6592;47.484;9.726;2023-03-14T02:16:03;9.50;99.90
13052;DHT22;6592;47.484;9.726;2023-03-14T02:18:34;9.50;99.90
13052;DHT22;6592;47.484;9.726;2023-03-14T02:21:08;9.60;99.90
13052;DHT22;6592;47.484;9.726;2023-03-14T02:23:45;9.70;99.90
13052;DHT22;6592;47.484;9.726;2023-03-14T02:26:21;9.70;99.90
13052;DHT22;6592;47.484;9.726;2023-03-14T02:28:53;9.80;99.90
13052;DHT22;6592;47.484;9.726;2023-03-14T02:31:22;9.80;99.90
13052;DHT22;6592;47.484;9.726;2023-03-14T02:33:56;9.90;99.90
13052;DHT22;6592;47.484;9.726;2023-03-14T02:36:25;9.80;99.90
13052;DHT22;6592;47.484;9.726;2023-03-14T02:39:00;9.90;99.90
13052;DHT22;6592;47.484;9.726;2023-03-14T02:41:32;10.00;99.90
13052;DHT22;6592;47.484;9.726;2023-03-14T02:44:18;10.10;99.90
13052;DHT22;6592;47.484;9.726;2023-03-14T02:46:47;10.10;99.90
13052;DHT22;6592;47.484;9.726;2023-03-14T02:49:16;10.20;99.90
13052;DHT22;6592;47.484;9.726;2023-03-14T02:51:53;10.30;99.90
13052;DHT22;6592;47.484;9.726;2023-03-14T02:54:24;10.30;99.90
13052;DHT22;6592;47.484;9.726;2023-03-14T02:56:54;10.30;99.90
13052;DHT22;6592;47.484;9.726;2023-03-14T02:59:24;10.30;99.90
13052;DHT22;6592;47.484;9.726;2023-03-14T03:01:53;10.30;99.90
13052;DHT22;6592;47.484;9.726;2023-03-14T03:04:22;10.20;99.90
13052;DHT22;6592;47.484;9.726;2023-03-14T03:06:51;10.20;99.90
13052;DHT22;6592;47.484;9.726;2023-03-14T03:09:22;10.20;99.90
13052;DHT22;6592;47.484;9.726;2023-03-14T03:11:52;10.10;99.90
13052;DHT22;6592;47.484;9.726;2023-03-14T03:14:25;10.10;99.90
13052;DHT22;6592;47.484;9.726;2023-03-14T03:16:54;10.10;99.90
13052;DHT22;6592;47.484;9.726;2023-03-14T03:19:24;10.10;99.90
13052;DHT22;6592;47.484;9.726;2023-03-14T03:21:52;10.10;99.90
13052;DHT22;6592;47.484;9.726;2023-03-14T03:24:21;10.00;99.90
13052;DHT22;6592;47.484;9.726;2023-03-14T03:26:50;9.80;99.90
13052;DHT22;6592;47.484;9.726;2023-03-14T03:29:19;9.60;99.90
13052;DHT22;6592;47.484;9.726;2023-03-14T03:31:52;9.50;99.90
13052;DHT22;6592;47.484;9.726;2023-03-14T03:34:21;9.40;99.90
13052;DHT22;6592;47.484;9.726;2023-03-14T03:36:49;9.40;99.90
13052;DHT22;6592;47.484;9.726;2023-03-14T03:39:18;9.30;99.90
13052;DHT22;6592;47.484;9.726;2023-03-14T03:41:48;9.30;99.90
13052;DHT22;6592;47.484;9.726;2023-03-14T03:44:16;9.30;99.90
13052;DHT22;6592;47.484;9.726;2023-03-14T03:46:45;9.40;99.90
13052;DHT22;6592;47.484;9.726;2023-03-14T03:49:15;9.40;99.90
13052;DHT22;6592;47.484;9.726;2023-03-14T03:51:44;9.40;99.90
13052;DHT22;6592;47.484;9.726;2023-03-14T03:54:13;9.50;99.90
13052;DHT22;6592;47.484;9.726;2023-03-14T03:56:42;9.50;99.90
13052;DHT22;6592;47.484;9.726;2023-03-14T03:59:11;9.50;99.90
13052;DHT22;6592;47.484;9.726;2023-03-14T04:01:39;9.50;99.90
13052;DHT22;6592;47.484;9.726;2023-03-14T04:04:08;9.60;99.90
13052;DHT22;6592;47.484;9.726;2023-03-14T04:06:38;9.60;99.90
13052;DHT22;6592;47.484;9.726;2023-03-14T04:09:08;9.60;99.90
13052;DHT22;6592;47.484;9.726;2023-03-14T04:11:37;9.70;99.90
13052;DHT22;6592;47.484;9.726;2023-03-14T04:14:08;9.70;99.90
13052;DHT22;6592;47.484;9.726;2023-03-14T04:16:37;9.70;99.90
13052;DHT22;6592;47.484;9.726;2023-03-14T04:19:05;9.70;99.90
13052;DHT22;6592;47.484;9.726;2023-03-14T04:21:34;9.80;99.90
13052;DHT22;6592;47.484;9.726;2023-03-14T04:24:05;9.80;99.90
13052;DHT22;6592;47.484;9.726;2023-03-14T04:26:34;9.70;99.90
13052;DHT22;6592;47.484;9.726;2023-03-14T04:29:03;9.80;99.90
13052;DHT22;6592;47.484;9.726;2023-03-14T04:31:31;9.70;99.90
13052;DHT22;6592;47.484;9.726;2023-03-14T04:34:00;9.70;99.90
13052;DHT22;6592;47.484;9.726;2023-03-14T04:36:29;9.60;99.90
13052;DHT22;6592;47.484;9.726;2023-03-14T04:38:58;9.50;99.90
13052;DHT22;6592;47.484;9.726;2023-03-14T04:41:28;9.40;99.90
13052;DHT22;6592;47.484;9.726;2023-03-14T04:43:57;9.40;99.90
13052;DHT22;6592;47.484;9.726;2023-03-14T04:46:26;9.30;99.90
13052;DHT22;6592;47.484;9.726;2023-03-14T04:48:54;9.20;99.90
13052;DHT22;6592;47.484;9.726;2023-03-14T04:51:24;9.20;99.90
13052;DHT22;6592;47.484;9.726;2023-03-14T04:53:54;9.20;99.90
13052;DHT22;6592;47.484;9.726;2023-03-14T04:56:23;9.20;99.90
13052;DHT22;6592;47.484;9.726;2023-03-14T04:58:54;9.20;99.90
13052;DHT22;6592;47.484;9.726;2023-03-14T05:01:23;9.20;99.90
13052;DHT22;6592;47.484;9.726;2023-03-14T05:03:52;9.20;99.90
13052;DHT22;6592;47.484;9.726;2023-03-14T05:06:20;9.20;99.90
13052;DHT22;6592;47.484;9.726;2023-03-14T05:08:49;9.20;99.90
13052;DHT22;6592;47.484;9.726;2023-03-14T05:11:18;9.20;99.90
13052;DHT22;6592;47.484;9.726;2023-03-14T05:13:47;9.20;99.90
13052;DHT22;6592;47.484;9.726;2023-03-14T05:16:17;9.20;99.90
13052;DHT22;6592;47.484;9.726;2023-03-14T05:18:46;9.20;99.90
13052;DHT22;6592;47.484;9.726;2023-03-14T05:21:15;9.30;99.90
13052;DHT22;6592;47.484;9.726;2023-03-14T05:23:43;9.30;99.90
13052;DHT22;6592;47.484;9.726;2023-03-14T05:26:12;9.30;99.90
13052;DHT22;6592;47.484;9.726;2023-03-14T05:28:44;9.30;99.90
13052;DHT22;6592;47.484;9.726;2023-03-14T05:31:12;9.20;99.90
13052;DHT22;6592;47.484;9.726;2023-03-14T05:33:42;9.20;99.90
13052;DHT22;6592;47.484;9.726;2023-03-14T05:36:13;9.20;99.90
13052;DHT22;6592;47.484;9.726;2023-03-14T05:38:41;9.20;99.90
13052;DHT22;6592;47.484;9.726;2023-03-14T05:41:10;9.20;99.90
13052;DHT22;6592;47.484;9.726;2023-03-14T05:43:38;9.20;99.90
13052;DHT22;6592;47.484;9.726;2023-03-14T05:46:07;9.20;99.90
13052;DHT22;6592;47.484;9.726;2023-03-14T05:48:36;9.20;99.90
13052;DHT22;6592;47.484;9.726;2023-03-14T05:51:08;9.30;99.90
13052;DHT22;6592;47.484;9.726;2023-03-14T05:53:36;9.30;99.90
13052;DHT22;6592;47.484;9.726;2023-03-14T05:56:06;9.30;99.90
13052;DHT22;6592;47.484;9.726;2023-03-14T05:58:36;9.30;99.90
13052;DHT22;6592;47.484;9.726;2023-03-14T06:01:06;9.30;99.90
13052;DHT22;6592;47.484;9.726;2023-03-14T06:03:35;9.30;99.90
13052;DHT22;6592;47.484;9.726;2023-03-14T06:06:04;9.30;99.90
13052;DHT22;6592;47.484;9.726;2023-03-14T06:08:34;9.30;99.90
13052;DHT22;6592;47.484;9.726;2023-03-14T06:11:04;9.30;99.90
13052;DHT22;6592;47.484;9.726;2023-03-14T06:13:33;9.30;99.90
13052;DHT22;6592;47.484;9.726;2023-03-14T06:16:01;9.30;99.90
13052;DHT22;6592;47.484;9.726;2023-03-14T06:18:30;9.30;99.90
13052;DHT22;6592;47.484;9.726;2023-03-14T06:21:00;9.20;99.90
13052;DHT22;6592;47.484;9.726;2023-03-14T06:23:29;9.20;99.90
13052;DHT22;6592;47.484;9.726;2023-03-14T06:26:01;9.20;99.90
13052;DHT22;6592;47.484;9.726;2023-03-14T06:28:30;9.30;99.90
13052;DHT22;6592;47.484;9.726;2023-03-14T06:31:00;9.20;99.90
13052;DHT22;6592;47.484;9.726;2023-03-14T06:33:30;9.20;99.90
13052;DHT22;6592;47.484;9.726;2023-03-14T06:35:59;9.20;99.90
13052;DHT22;6592;47.484;9.726;2023-03-14T06:38:28;9.20;99.90
13052;DHT22;6592;47.484;9.726;2023-03-14T06:41:04;9.10;99.90
13052;DHT22;6592;47.484;9.726;2023-03-14T06:43:33;9.10;99.90
13052;DHT22;6592;47.484;9.726;2023-03-14T06:46:03;9.00;99.90
13052;DHT22;6592;47.484;9.726;2023-03-14T06:48:36;9.00;99.90
13052;DHT22;6592;47.484;9.726;2023-03-14T06:51:05;9.00;99.90
13052;DHT22;6592;47.484;9.726;2023-03-14T06:53:34;9.00;99.90
13052;DHT22;6592;47.484;9.726;2023-03-14T06:56:06;9.00;99.90
13052;DHT22;6592;47.484;9.726;2023-03-14T06:58:35;8.90;99.90
13052;DHT22;6592;47.484;9.726;2023-03-14T07:01:05;8.90;99.90
13052;DHT22;6592;47.484;9.726;2023-03-14T07:03:36;8.80;99.90
13052;DHT22;6592;47.484;9.726;2023-03-14T07:06:06;8.80;99.90
13052;DHT22;6592;47.484;9.726;2023-03-14T07:08:35;8.80;99.90
13052;DHT22;6592;47.484;9.726;2023-03-14T07:11:07;8.90;99.90
13052;DHT22;6592;47.484;9.726;2023-03-14T07:13:38;8.90;99.90
13052;DHT22;6592;47.484;9.726;2023-03-14T07:16:08;9.00;99.90
13052;DHT22;6592;47.484;9.726;2023-03-14T07:18:36;9.10;99.90
13052;DHT22;6592;47.484;9.726;2023-03-14T07:21:08;9.10;99.90
13052;DHT22;6592;47.484;9.726;2023-03-14T07:23:39;9.20;99.90
13052;DHT22;6592;47.484;9.726;2023-03-14T07:26:09;9.30;99.90
13052;DHT22;6592;47.484;9.726;2023-03-14T07:28:40;9.50;99.90
13052;DHT22;6592;47.484;9.726;2023-03-14T07:31:10;9.70;99.90
13052;DHT22;6592;47.484;9.726;2023-03-14T07:33:39;9.80;99.90
13052;DHT22;6592;47.484;9.726;2023-03-14T07:36:09;10.00;99.90
13052;DHT22;6592;47.484;9.726;2023-03-14T07:38:38;10.20;99.90
13052;DHT22;6592;47.484;9.726;2023-03-14T07:41:08;10.30;99.90
13052;DHT22;6592;47.484;9.726;2023-03-14T07:43:37;10.50;99.90
13052;DHT22;6592;47.484;9.726;2023-03-14T07:46:06;10.80;99.90
13052;DHT22;6592;47.484;9.726;2023-03-14T07:48:35;10.70;99.90
13052;DHT22;6592;47.484;9.726;2023-03-14T07:51:03;10.60;99.90
13052;DHT22;6592;47.484;9.726;2023-03-14T07:53:33;10.50;99.90
13052;DHT22;6592;47.484;9.726;2023-03-14T07:56:02;10.50;99.90
13052;DHT22;6592;47.484;9.726;2023-03-14T07:58:33;10.50;99.90
13052;DHT22;6592;47.484;9.726;2023-03-14T08:01:01;10.50;99.90
13052;DHT22;6592;47.484;9.726;2023-03-14T08:03:32;10.50;99.90
13052;DHT22;6592;47.484;9.726;2023-03-14T08:06:01;10.70;99.90
13052;DHT22;6592;47.484;9.726;2023-03-14T08:08:29;11.00;99.90
13052;DHT22;6592;47.484;9.726;2023-03-14T08:11:02;11.10;99.90
13052;DHT22;6592;47.484;9.726;2023-03-14T08:13:37;11.10;99.90
13052;DHT22;6592;47.484;9.726;2023-03-14T08:16:07;11.10;99.90
13052;DHT22;6592;47.484;9.726;2023-03-14T08:18:36;11.20;99.90
13052;DHT22;6592;47.484;9.726;2023-03-14T08:21:05;11.40;99.90
13052;DHT22;6592;47.484;9.726;2023-03-14T08:23:35;11.40;99.90
13052;DHT22;6592;47.484;9.726;2023-03-14T08:26:06;11.40;99.90
13052;DHT22;6592;47.484;9.726;2023-03-14T08:28:35;11.40;99.90
13052;DHT22;6592;47.484;9.726;2023-03-14T08:31:06;11.50;99.90
13052;DHT22;6592;47.484;9.726;2023-03-14T08:33:35;11.70;99.90
13052;DHT22;6592;47.484;9.726;2023-03-14T08:36:04;12.60;99.90
13052;DHT22;6592;47.484;9.726;2023-03-14T08:38:33;13.50;99.90
13052;DHT22;6592;47.484;9.726;2023-03-14T08:41:07;14.00;99.90
13052;DHT22;6592;47.484;9.726;2023-03-14T08:43:36;13.90;99.90
13052;DHT22;6592;47.484;9.726;2023-03-14T08:46:08;13.60;99.90
13052;DHT22;6592;47.484;9.726;2023-03-14T08:48:37;13.40;99.90
13052;DHT22;6592;47.484;9.726;2023-03-14T08:51:08;13.30;99.90
13052;DHT22;6592;47.484;9.726;2023-03-14T08:53:38;13.10;99.90
13052;DHT22;6592;47.484;9.726;2023-03-14T08:56:08;13.00;99.90
13052;DHT22;6592;47.484;9.726;2023-03-14T08:58:37;13.20;99.90
13052;DHT22;6592;47.484;9.726;2023-03-14T09:01:09;13.90;99.90
13052;DHT22;6592;47.484;9.726;2023-03-14T09:03:38;14.10;99.90
13052;DHT22;6592;47.484;9.726;2023-03-14T09:06:09;13.80;99.90
13052;DHT22;6592;47.484;9.726;2023-03-14T09:08:37;14.30;99.90
13052;DHT22;6592;47.484;9.726;2023-03-14T09:11:07;15.80;99.90
13052;DHT22;6592;47.484;9.726;2023-03-14T09:13:37;17.30;99.90
13052;DHT22;6592;47.484;9.726;2023-03-14T09:16:11;18.10;99.90
13052;DHT22;6592;47.484;9.726;2023-03-14T09:18:41;18.40;99.90
13052;DHT22;6592;47.484;9.726;2023-03-14T09:21:09;18.50;99.90
13052;DHT22;6592;47.484;9.726;2023-03-14T09:23:40;18.20;99.90
13052;DHT22;6592;47.484;9.726;2023-03-14T09:26:12;18.10;99.90
13052;DHT22;6592;47.484;9.726;2023-03-14T09:28:41;17.60;99.90
13052;DHT22;6592;47.484;9.726;2023-03-14T09:31:15;17.10;99.90
13052;DHT22;6592;47.484;9.726;2023-03-14T09:33:47;16.50;99.90
13052;DHT22;6592;47.484;9.726;2023-03-14T09:36:17;16.30;99.90
13052;DHT22;6592;47.484;9.726;2023-03-14T09:38:47;16.10;99.90
13052;DHT22;6592;47.484;9.726;2023-03-14T09:41:21;16.00;99.90
13052;DHT22;6592;47.484;9.726;2023-03-14T09:43:59;15.70;99.90
13052;DHT22;6592;47.484;9.726;2023-03-14T09:46:38;15.60;99.90
13052;DHT22;6592;47.484;9.726;2023-03-14T09:49:11;15.20;99.90
13052;DHT22;6592;47.484;9.726;2023-03-14T09:51:43;14.70;99.90
13052;DHT22;6592;47.484;9.726;2023-03-14T09:54:24;14.30;99.90
13052;DHT22;6592;47.484;9.726;2023-03-14T09:56:55;14.10;99.90
13052;DHT22;6592;47.484;9.726;2023-03-14T09:59:25;13.80;99.90
13052;DHT22;6592;47.484;9.726;2023-03-14T10:01:57;13.60;99.90
13052;DHT22;6592;47.484;9.726;2023-03-14T10:04:27;13.30;99.90
13052;DHT22;6592;47.484;9.726;2023-03-14T10:06:57;13.20;99.90
13052;DHT22;6592;47.484;9.726;2023-03-14T10:09:25;13.30;99.90
13052;DHT22;6592;47.484;9.726;2023-03-14T10:11:55;13.50;99.90
13052;DHT22;6592;47.484;9.726;2023-03-14T10:14:38;13.50;99.90
13052;DHT22;6592;47.484;9.726;2023-03-14T10:17:18;13.30;99.90
13052;DHT22;6592;47.484;9.726;2023-03-14T10:19:53;13.30;99.90
13052;DHT22;6592;47.484;9.726;2023-03-14T10:22:26;13.20;99.90
13052;DHT22;6592;47.484;9.726;2023-03-14T10:24:57;13.00;99.90
13052;DHT22;6592;47.484;9.726;2023-03-14T10:27:30;13.00;99.90
13052;DHT22;6592;47.484;9.726;2023-03-14T10:30:01;13.00;99.90
13052;DHT22;6592;47.484;9.726;2023-03-14T10:32:36;13.10;99.90
13052;DHT22;6592;47.484;9.726;2023-03-14T10:35:11;13.10;99.90
13052;DHT22;6592;47.484;9.726;2023-03-14T10:37:52;13.20;99.90
13052;DHT22;6592;47.484;9.726;2023-03-14T10:40:26;13.20;99.90
13052;DHT22;6592;47.484;9.726;2023-03-14T10:42:58;13.20;99.90
13052;DHT22;6592;47.484;9.726;2023-03-14T10:45:34;13.20;99.90
13052;DHT22;6592;47.484;9.726;2023-03-14T10:48:19;13.20;99.90
13052;DHT22;6592;47.484;9.726;2023-03-14T10:50:53;13.20;99.90
13052;DHT22;6592;47.484;9.726;2023-03-14T10:53:23;13.20;99.90
13052;DHT22;6592;47.484;9.726;2023-03-14T10:55:56;13.20;99.90
13052;DHT22;6592;47.484;9.726;2023-03-14T10:58:27;13.20;99.90
13052;DHT22;6592;47.484;9.726;2023-03-14T11:01:06;13.20;99.90
13052;DHT22;6592;47.484;9.726;2023-03-14T11:03:40;13.20;99.90
13052;DHT22;6592;47.484;9.726;2023-03-14T11:06:14;13.30;99.90
13052;DHT22;6592;47.484;9.726;2023-03-14T11:08:49;13.30;99.90
13052;DHT22;6592;47.484;9.726;2023-03-14T11:11:23;13.30;99.90
13052;DHT22;6592;47.484;9.726;2023-03-14T11:14:03;13.40;99.90
13052;DHT22;6592;47.484;9.726;2023-03-14T11:16:42;13.30;99.90
13052;DHT22;6592;47.484;9.726;2023-03-14T11:19:24;13.30;99.90
13052;DHT22;6592;47.484;9.726;2023-03-14T11:22:04;13.30;99.90
13052;DHT22;6592;47.484;9.726;2023-03-14T11:25:07;13.40;99.90
13052;DHT22;6592;47.484;9.726;2023-03-14T11:27:43;13.50;99.90
13052;DHT22;6592;47.484;9.726;2023-03-14T11:30:19;13.50;99.90
13052;DHT22;6592;47.484;9.726;2023-03-14T11:32:56;13.40;99.90
13052;DHT22;6592;47.484;9.726;2023-03-14T11:35:33;13.30;99.90
13052;DHT22;6592;47.484;9.726;2023-03-14T11:38:23;13.20;99.90
13052;DHT22;6592;47.484;9.726;2023-03-14T11:40:58;13.00;99.90
13052;DHT22;6592;47.484;9.726;2023-03-14T11:43:29;13.00;99.90
13052;DHT22;6592;47.484;9.726;2023-03-14T11:46:04;12.80;99.90
13052;DHT22;6592;47.484;9.726;2023-03-14T11:48:40;12.80;99.90
13052;DHT22;6592;47.484;9.726;2023-03-14T11:51:18;12.60;99.90
13052;DHT22;6592;47.484;9.726;2023-03-14T11:53:58;12.40;99.90
13052;DHT22;6592;47.484;9.726;2023-03-14T11:56:33;12.40;99.90
13052;DHT22;6592;47.484;9.726;2023-03-14T11:59:09;12.40;99.90
13052;DHT22;6592;47.484;9.726;2023-03-14T12:01:53;12.40;99.90
13052;DHT22;6592;47.484;9.726;2023-03-14T12:04:35;12.30;99.90
13052;DHT22;6592;47.484;9.726;2023-03-14T12:07:18;12.30;99.90
13052;DHT22;6592;47.484;9.726;2023-03-14T12:09:48;12.20;99.90
13052;DHT22;6592;47.484;9.726;2023-03-14T12:12:20;12.20;99.90
13052;DHT22;6592;47.484;9.726;2023-03-14T12:14:56;12.00;99.90
13052;DHT22;6592;47.484;9.726;2023-03-14T12:17:27;11.90;99.90
13052;DHT22;6592;47.484;9.726;2023-03-14T12:20:05;11.90;99.90
13052;DHT22;6592;47.484;9.726;2023-03-14T12:22:44;11.80;99.90
13052;DHT22;6592;47.484;9.726;2023-03-14T12:25:19;11.80;99.90
13052;DHT22;6592;47.484;9.726;2023-03-14T12:30:38;11.60;99.90
13052;DHT22;6592;47.484;9.726;2023-03-14T12:36:12;11.00;99.90
13052;DHT22;6592;47.484;9.726;2023-03-14T12:39:15;10.80;99.90
13052;DHT22;6592;47.484;9.726;2023-03-14T12:41:51;10.70;99.90
13052;DHT22;6592;47.484;9.726;2023-03-14T12:44:46;10.60;99.90
13052;DHT22;6592;47.484;9.726;2023-03-14T12:50:34;10.50;99.90
13052;DHT22;6592;47.484;9.726;2023-03-14T12:56:22;10.10;99.90
13052;DHT22;6592;47.484;9.726;2023-03-14T12:59:12;9.90;99.90
13052;DHT22;6592;47.484;9.726;2023-03-14T13:01:47;9.70;99.90
13052;DHT22;6592;47.484;9.726;2023-03-14T13:04:17;9.70;99.90
13052;DHT22;6592;47.484;9.726;2023-03-14T13:06:59;9.60;99.90
13052;DHT22;6592;47.484;9.726;2023-03-14T13:10:00;9.60;99.90
13052;DHT22;6592;47.484;9.726;2023-03-14T13:12:38;9.50;99.90
13052;DHT22;6592;47.484;9.726;2023-03-14T13:15:29;9.50;99.90
13052;DHT22;6592;47.484;9.726;2023-03-14T13:18:02;9.50;99.90
13052;DHT22;6592;47.484;9.726;2023-03-14T13:20:34;9.50;99.90
13052;DHT22;6592;47.484;9.726;2023-03-14T13:23:04;9.50;99.90
13052;DHT22;6592;47.484;9.726;2023-03-14T13:25:35;9.40;99.90
13052;DHT22;6592;47.484;9.726;2023-03-14T13:28:08;9.40;99.90
13052;DHT22;6592;47.484;9.726;2023-03-14T13:30:41;9.40;99.90
13052;DHT22;6592;47.484;9.726;2023-03-14T13:33:15;9.40;99.90
13052;DHT22;6592;47.484;9.726;2023-03-14T13:35:46;9.50;99.90
13052;DHT22;6592;47.484;9.726;2023-03-14T13:38:20;9.50;99.90
13052;DHT22;6592;47.484;9.726;2023-03-14T13:40:51;9.50;99.90
13052;DHT22;6592;47.484;9.726;2023-03-14T13:43:29;9.50;99.90
13052;DHT22;6592;47.484;9.726;2023-03-14T13:46:03;9.60;99.90
13052;DHT22;6592;47.484;9.726;2023-03-14T13:48:36;9.60;99.90
13052;DHT22;6592;47.484;9.726;2023-03-14T13:51:11;9.70;99.90
13052;DHT22;6592;47.484;9.726;2023-03-14T13:53:45;9.80;99.90
13052;DHT22;6592;47.484;9.726;2023-03-14T13:56:15;9.90;99.90
13052;DHT22;6592;47.484;9.726;2023-03-14T13:58:45;9.90;99.90
13052;DHT22;6592;47.484;9.726;2023-03-14T14:01:17;10.00;99.90
13052;DHT22;6592;47.484;9.726;2023-03-14T14:03:49;10.10;99.90
13052;DHT22;6592;47.484;9.726;2023-03-14T14:06:30;10.20;99.90
13052;DHT22;6592;47.484;9.726;2023-03-14T14:09:01;10.20;99.90
13052;DHT22;6592;47.484;9.726;2023-03-14T14:11:42;10.20;99.90
13052;DHT22;6592;47.484;9.726;2023-03-14T14:14:33;10.20;99.90
13052;DHT22;6592;47.484;9.726;2023-03-14T14:17:06;10.20;99.90
13052;DHT22;6592;47.484;9.726;2023-03-14T14:19:37;10.10;99.90
13052;DHT22;6592;47.484;9.726;2023-03-14T14:22:08;10.10;99.90
13052;DHT22;6592;47.484;9.726;2023-03-14T14:24:39;10.00;99.90
13052;DHT22;6592;47.484;9.726;2023-03-14T14:27:14;10.00;99.90
13052;DHT22;6592;47.484;9.726;2023-03-14T14:29:57;10.00;99.90
13052;DHT22;6592;47.484;9.726;2023-03-14T14:32:26;9.90;99.90
13052;DHT22;6592;47.484;9.726;2023-03-14T14:34:58;9.80;99.90
13052;DHT22;6592;47.484;9.726;2023-03-14T14:37:28;9.70;99.90
13052;DHT22;6592;47.484;9.726;2023-03-14T14:39:59;9.70;99.90
13052;DHT22;6592;47.484;9.726;2023-03-14T14:42:30;9.60;99.90
13052;DHT22;6592;47.484;9.726;2023-03-14T14:45:03;9.30;99.90
13052;DHT22;6592;47.484;9.726;2023-03-14T14:47:32;9.00;99.90
13052;DHT22;6592;47.484;9.726;2023-03-14T14:50:04;8.80;99.90
13052;DHT22;6592;47.484;9.726;2023-03-14T14:52:37;8.60;99.90
13052;DHT22;6592;47.484;9.726;2023-03-14T14:55:13;8.50;99.90
13052;DHT22;6592;47.484;9.726;2023-03-14T14:57:49;8.50;99.90
13052;DHT22;6592;47.484;9.726;2023-03-14T15:00:23;8.70;99.90
13052;DHT22;6592;47.484;9.726;2023-03-14T15:02:54;8.80;99.90
13052;DHT22;6592;47.484;9.726;2023-03-14T15:05:24;8.80;99.90
13052;DHT22;6592;47.484;9.726;2023-03-14T15:07:54;8.80;99.90
13052;DHT22;6592;47.484;9.726;2023-03-14T15:10:24;8.90;99.90
13052;DHT22;6592;47.484;9.726;2023-03-14T15:12:54;8.90;99.90
13052;DHT22;6592;47.484;9.726;2023-03-14T15:15:24;9.00;99.90
13052;DHT22;6592;47.484;9.726;2023-03-14T15:17:53;9.10;99.90
13052;DHT22;6592;47.484;9.726;2023-03-14T15:20:22;9.20;99.90
13052;DHT22;6592;47.484;9.726;2023-03-14T15:22:52;9.30;99.90
13052;DHT22;6592;47.484;9.726;2023-03-14T15:25:20;9.40;99.90
13052;DHT22;6592;47.484;9.726;2023-03-14T15:28:17;9.40;99.90
13052;DHT22;6592;47.484;9.726;2023-03-14T15:30:49;9.60;99.90
13052;DHT22;6592;47.484;9.726;2023-03-14T15:33:19;9.60;99.90
13052;DHT22;6592;47.484;9.726;2023-03-14T15:35:48;9.70;99.90
13052;DHT22;6592;47.484;9.726;2023-03-14T15:38:18;9.60;99.90
13052;DHT22;6592;47.484;9.726;2023-03-14T15:40:51;9.70;99.90
13052;DHT22;6592;47.484;9.726;2023-03-14T15:43:21;9.70;99.90
13052;DHT22;6592;47.484;9.726;2023-03-14T15:45:54;9.60;99.90
13052;DHT22;6592;47.484;9.726;2023-03-14T15:48:23;9.60;99.90
13052;DHT22;6592;47.484;9.726;2023-03-14T15:50:52;9.80;99.90
13052;DHT22;6592;47.484;9.726;2023-03-14T15:53:21;9.90;99.90
13052;DHT22;6592;47.484;9.726;2023-03-14T15:55:50;9.80;99.90
13052;DHT22;6592;47.484;9.726;2023-03-14T15:58:22;9.60;99.90
13052;DHT22;6592;47.484;9.726;2023-03-14T16:00:54;9.40;99.90
13052;DHT22;6592;47.484;9.726;2023-03-14T16:03:23;9.50;99.90
13052;DHT22;6592;47.484;9.726;2023-03-14T16:05:52;9.40;99.90
13052;DHT22;6592;47.484;9.726;2023-03-14T16:08:23;9.40;99.90
13052;DHT22;6592;47.484;9.726;2023-03-14T16:10:54;9.40;99.90
13052;DHT22;6592;47.484;9.726;2023-03-14T16:13:23;9.20;99.90
13052;DHT22;6592;47.484;9.726;2023-03-14T16:15:57;9.10;99.90
13052;DHT22;6592;47.484;9.726;2023-03-14T16:18:32;9.10;99.90
13052;DHT22;6592;47.484;9.726;2023-03-14T16:21:03;9.00;99.90
13052;DHT22;6592;47.484;9.726;2023-03-14T16:23:33;9.00;99.90
13052;DHT22;6592;47.484;9.726;2023-03-14T16:26:04;9.00;99.90
13052;DHT22;6592;47.484;9.726;2023-03-14T16:28:34;9.00;99.90
13052;DHT22;6592;47.484;9.726;2023-03-14T16:31:06;9.00;99.90
13052;DHT22;6592;47.484;9.726;2023-03-14T16:33:36;9.10;99.90
13052;DHT22;6592;47.484;9.726;2023-03-14T16:36:07;9.10;99.90
13052;DHT22;6592;47.484;9.726;2023-03-14T16:38:39;9.10;99.90